Princeville, Hawaii
Current Conditions -  °F | °C
As of 8:53 PM on Monday 20 Oct 2014 (Local Time) from PHLI Reporting Station
Clear Clear  
Wind Chill: 80°   Ceiling: Unl
Heat Index: 84°   Visibility: 10mi
Dew Point: 72°   Wind: 14mph
Humidity: 76%   Direction: 80°E
Pressure: 30.04"   Gusts: NA
Location:  22.22°N, 159.48°W
Report Text: PHLI 210653Z 08012KT 10SM CLR 27/22 A3004 RMK AO2 SLP170 T02670222
Loading
Personal Weather Stations






























Interactive Weather Map
Tropical Storm Tracking
New forecast layout! Learn more

10-Day Weather Forecast

Advertisements
Track Severe Weather on mobile